sensor_id;sensor_type;location;lat;lon;timestamp;pressure;altitude;pressure_sealevel;temperature;humidity
42105;BME280;70664;51.472;5.712;2023-12-29T00:00:41;100700.78;;;16.87;66.98
42105;BME280;70664;51.472;5.712;2023-12-29T00:03:07;100700.84;;;16.85;66.79
42105;BME280;70664;51.472;5.712;2023-12-29T00:05:33;100682.72;;;16.84;66.91
42105;BME280;70664;51.472;5.712;2023-12-29T00:07:59;100700.91;;;16.82;66.94
42105;BME280;70664;51.472;5.712;2023-12-29T00:10:24;100696.63;;;16.81;66.87
42105;BME280;70664;51.472;5.712;2023-12-29T00:12:50;100700.09;;;16.80;66.77
42105;BME280;70664;51.472;5.712;2023-12-29T00:15:19;100691.50;;;16.78;66.44
42105;BME280;70664;51.472;5.712;2023-12-29T00:17:45;100694.09;;;16.78;66.38
42105;BME280;70664;51.472;5.712;2023-12-29T00:20:12;100688.06;;;16.77;66.50
42105;BME280;70664;51.472;5.712;2023-12-29T00:22:38;100688.09;;;16.76;66.52
42105;BME280;70664;51.472;5.712;2023-12-29T00:25:05;100682.94;;;16.74;66.94
42105;BME280;70664;51.472;5.712;2023-12-29T00:27:31;100676.03;;;16.73;66.61
42105;BME280;70664;51.472;5.712;2023-12-29T00:29:56;100678.63;;;16.73;66.79
42105;BME280;70664;51.472;5.712;2023-12-29T00:32:22;100669.16;;;16.72;66.64
42105;BME280;70664;51.472;5.712;2023-12-29T00:34:48;100675.28;;;16.70;66.89
42105;BME280;70664;51.472;5.712;2023-12-29T00:37:14;100676.16;;;16.69;66.60
42105;BME280;70664;51.472;5.712;2023-12-29T00:39:40;100671.00;;;16.67;66.64
42105;BME280;70664;51.472;5.712;2023-12-29T00:42:06;100671.88;;;16.66;66.87
42105;BME280;70664;51.472;5.712;2023-12-29T00:44:33;100673.66;;;16.66;66.84
42105;BME280;70664;51.472;5.712;2023-12-29T00:46:59;100670.22;;;16.63;67.09
42105;BME280;70664;51.472;5.712;2023-12-29T00:49:26;100673.66;;;16.64;66.65
42105;BME280;70664;51.472;5.712;2023-12-29T00:51:52;100646.91;;;16.62;66.84
42105;BME280;70664;51.472;5.712;2023-12-29T00:54:18;100640.81;;;16.63;66.85
42105;BME280;70664;51.472;5.712;2023-12-29T00:56:51;100636.59;;;16.59;66.63
42105;BME280;70664;51.472;5.712;2023-12-29T00:59:18;100627.06;;;16.59;66.82
42105;BME280;70664;51.472;5.712;2023-12-29T01:01:45;100633.09;;;16.60;66.77
42105;BME280;70664;51.472;5.712;2023-12-29T01:04:11;100646.13;;;16.58;66.77
42105;BME280;70664;51.472;5.712;2023-12-29T01:06:37;100650.56;;;16.55;66.80
42105;BME280;70664;51.472;5.712;2023-12-29T01:09:03;100659.16;;;16.57;66.50
42105;BME280;70664;51.472;5.712;2023-12-29T01:11:29;100652.28;;;16.54;66.80
42105;BME280;70664;51.472;5.712;2023-12-29T01:13:55;100652.28;;;16.54;66.92
42105;BME280;70664;51.472;5.712;2023-12-29T01:16:21;100649.75;;;16.53;66.91
42105;BME280;70664;51.472;5.712;2023-12-29T01:18:47;100649.75;;;16.51;66.35
42105;BME280;70664;51.472;5.712;2023-12-29T01:21:12;100647.16;;;16.51;66.85
42105;BME280;70664;51.472;5.712;2023-12-29T01:23:38;100652.34;;;16.51;66.89
42105;BME280;70664;51.472;5.712;2023-12-29T01:26:04;100662.78;;;16.50;66.91
42105;BME280;70664;51.472;5.712;2023-12-29T01:28:30;100665.38;;;16.50;66.74
42105;BME280;70664;51.472;5.712;2023-12-29T01:30:55;100656.72;;;16.49;66.96
42105;BME280;70664;51.472;5.712;2023-12-29T01:33:21;100673.25;;;16.46;66.55
42105;BME280;70664;51.472;5.712;2023-12-29T01:35:47;100674.97;;;16.46;66.53
42105;BME280;70664;51.472;5.712;2023-12-29T01:38:13;100669.78;;;16.46;66.54
42105;BME280;70664;51.472;5.712;2023-12-29T01:40:47;100667.22;;;16.44;66.77
42105;BME280;70664;51.472;5.712;2023-12-29T01:43:13;100674.13;;;16.45;67.02
42105;BME280;70664;51.472;5.712;2023-12-29T01:45:38;100676.78;;;16.42;67.08
42105;BME280;70664;51.472;5.712;2023-12-29T01:48:05;100684.56;;;16.44;66.76
42105;BME280;70664;51.472;5.712;2023-12-29T01:50:32;100674.19;;;16.42;66.88
42105;BME280;70664;51.472;5.712;2023-12-29T01:52:58;100663.88;;;16.41;66.97
42105;BME280;70664;51.472;5.712;2023-12-29T01:55:25;100657.81;;;16.40;66.67
42105;BME280;70664;51.472;5.712;2023-12-29T01:57:51;100656.09;;;16.39;67.18
42105;BME280;70664;51.472;5.712;2023-12-29T02:00:18;100654.38;;;16.40;66.72
42105;BME280;70664;51.472;5.712;2023-12-29T02:02:46;100650.97;;;16.38;67.02
42105;BME280;70664;51.472;5.712;2023-12-29T02:05:14;100640.59;;;16.38;67.25
42105;BME280;70664;51.472;5.712;2023-12-29T02:07:43;100638.00;;;16.36;67.13
42105;BME280;70664;51.472;5.712;2023-12-29T02:10:09;100650.97;;;16.38;66.97
42105;BME280;70664;51.472;5.712;2023-12-29T02:12:39;100638.00;;;16.36;67.01
42105;BME280;70664;51.472;5.712;2023-12-29T02:15:07;100634.56;;;16.36;66.73
42105;BME280;70664;51.472;5.712;2023-12-29T02:17:47;100632.00;;;16.34;66.88
42105;BME280;70664;51.472;5.712;2023-12-29T02:20:13;100634.66;;;16.32;67.21
42105;BME280;70664;51.472;5.712;2023-12-29T02:22:40;100636.34;;;16.33;66.87
42105;BME280;70664;51.472;5.712;2023-12-29T02:25:06;100641.56;;;16.32;66.92
42105;BME280;70664;51.472;5.712;2023-12-29T02:30:26;100639.84;;;16.31;67.13
42105;BME280;70664;51.472;5.712;2023-12-29T02:32:57;100630.41;;;16.28;67.33
42105;BME280;70664;51.472;5.712;2023-12-29T02:35:28;100629.53;;;16.29;67.09
42105;BME280;70664;51.472;5.712;2023-12-29T02:37:57;100639.06;;;16.29;66.89
42105;BME280;70664;51.472;5.712;2023-12-29T02:40:25;100632.16;;;16.28;67.34
42105;BME280;70664;51.472;5.712;2023-12-29T02:42:51;100629.59;;;16.28;66.87
42105;BME280;70664;51.472;5.712;2023-12-29T02:45:18;100635.66;;;16.27;67.05
42105;BME280;70664;51.472;5.712;2023-12-29T02:47:44;100634.78;;;16.26;67.06
42105;BME280;70664;51.472;5.712;2023-12-29T02:50:10;100633.94;;;16.26;66.99
42105;BME280;70664;51.472;5.712;2023-12-29T02:52:37;100639.13;;;16.26;67.12
42105;BME280;70664;51.472;5.712;2023-12-29T02:55:03;100643.50;;;16.24;67.07
42105;BME280;70664;51.472;5.712;2023-12-29T02:57:29;100644.34;;;16.24;67.25
42105;BME280;70664;51.472;5.712;2023-12-29T02:59:56;100643.50;;;16.24;66.84
42105;BME280;70664;51.472;5.712;2023-12-29T03:02:22;100638.34;;;16.22;67.32
42105;BME280;70664;51.472;5.712;2023-12-29T03:04:48;100631.41;;;16.23;67.25
42105;BME280;70664;51.472;5.712;2023-12-29T03:07:14;100637.44;;;16.23;67.31
42105;BME280;70664;51.472;5.712;2023-12-29T03:09:40;100633.22;;;16.19;67.31
42105;BME280;70664;51.472;5.712;2023-12-29T03:12:06;100631.50;;;16.20;67.12
42105;BME280;70664;51.472;5.712;2023-12-29T03:14:32;100629.81;;;16.17;67.48
42105;BME280;70664;51.472;5.712;2023-12-29T03:16:58;100626.31;;;16.18;67.08
42105;BME280;70664;51.472;5.712;2023-12-29T03:19:24;100623.72;;;16.18;67.30
42105;BME280;70664;51.472;5.712;2023-12-29T03:21:50;100627.19;;;16.18;66.94
42105;BME280;70664;51.472;5.712;2023-12-29T03:24:16;100619.44;;;16.17;67.24
42105;BME280;70664;51.472;5.712;2023-12-29T03:26:42;100619.44;;;16.17;67.09
42105;BME280;70664;51.472;5.712;2023-12-29T03:29:08;100609.09;;;16.15;67.36
42105;BME280;70664;51.472;5.712;2023-12-29T03:31:34;100619.47;;;16.15;67.13
42105;BME280;70664;51.472;5.712;2023-12-29T03:34:00;100629.03;;;16.15;67.38
42105;BME280;70664;51.472;5.712;2023-12-29T03:36:25;100620.34;;;16.16;67.13
42105;BME280;70664;51.472;5.712;2023-12-29T03:38:51;100625.56;;;16.14;67.25
42105;BME280;70664;51.472;5.712;2023-12-29T03:41:17;100617.81;;;16.13;67.42
42105;BME280;70664;51.472;5.712;2023-12-29T03:43:44;100616.94;;;16.14;67.38
42105;BME280;70664;51.472;5.712;2023-12-29T03:46:20;100619.56;;;16.12;67.18
42105;BME280;70664;51.472;5.712;2023-12-29T03:48:47;100613.53;;;16.12;67.16
42105;BME280;70664;51.472;5.712;2023-12-29T03:51:15;100614.41;;;16.11;67.21
42105;BME280;70664;51.472;5.712;2023-12-29T03:53:41;100614.41;;;16.11;67.27
42105;BME280;70664;51.472;5.712;2023-12-29T03:56:08;100617.03;;;16.09;67.39
42105;BME280;70664;51.472;5.712;2023-12-29T03:58:35;100614.44;;;16.09;66.78
42105;BME280;70664;51.472;5.712;2023-12-29T04:01:02;100606.66;;;16.09;67.24
42105;BME280;70664;51.472;5.712;2023-12-29T04:03:28;100598.03;;;16.09;67.05
42105;BME280;70664;51.472;5.712;2023-12-29T04:05:53;100600.63;;;16.09;67.19
42105;BME280;70664;51.472;5.712;2023-12-29T04:08:19;100594.63;;;16.07;67.34
42105;BME280;70664;51.472;5.712;2023-12-29T04:10:45;100611.00;;;16.07;67.16
42105;BME280;70664;51.472;5.712;2023-12-29T04:13:11;100606.69;;;16.08;66.94
42105;BME280;70664;51.472;5.712;2023-12-29T04:15:36;100605.00;;;16.07;67.08
42105;BME280;70664;51.472;5.712;2023-12-29T04:18:02;100610.19;;;16.05;66.98
42105;BME280;70664;51.472;5.712;2023-12-29T04:20:28;100610.19;;;16.07;66.89
42105;BME280;70664;51.472;5.712;2023-12-29T04:22:54;100605.00;;;16.05;67.26
42105;BME280;70664;51.472;5.712;2023-12-29T04:25:20;100606.78;;;16.03;67.27
42105;BME280;70664;51.472;5.712;2023-12-29T04:27:46;100601.66;;;16.01;67.21
42105;BME280;70664;51.472;5.712;2023-12-29T04:30:12;100606.84;;;16.01;66.99
42105;BME280;70664;51.472;5.712;2023-12-29T04:32:38;100611.13;;;16.02;66.75
42105;BME280;70664;51.472;5.712;2023-12-29T04:35:04;100615.50;;;16.00;67.30
42105;BME280;70664;51.472;5.712;2023-12-29T04:37:30;100609.44;;;16.01;66.95
42105;BME280;70664;51.472;5.712;2023-12-29T04:39:56;100606.00;;;15.99;67.10
42105;BME280;70664;51.472;5.712;2023-12-29T04:42:22;100606.00;;;15.99;66.92
42105;BME280;70664;51.472;5.712;2023-12-29T04:44:48;100612.09;;;15.98;67.03
42105;BME280;70664;51.472;5.712;2023-12-29T04:47:14;100607.78;;;15.99;66.85
42105;BME280;70664;51.472;5.712;2023-12-29T04:49:39;100607.78;;;15.97;67.00
42105;BME280;70664;51.472;5.712;2023-12-29T04:52:05;100596.56;;;15.97;67.07
42105;BME280;70664;51.472;5.712;2023-12-29T04:54:31;100600.00;;;15.97;66.99
42105;BME280;70664;51.472;5.712;2023-12-29T04:56:57;100606.09;;;15.96;67.04
42105;BME280;70664;51.472;5.712;2023-12-29T04:59:22;100603.50;;;15.96;66.70
42105;BME280;70664;51.472;5.712;2023-12-29T05:01:48;100604.34;;;15.97;67.01
42105;BME280;70664;51.472;5.712;2023-12-29T05:04:14;100592.28;;;15.96;66.99
42105;BME280;70664;51.472;5.712;2023-12-29T05:06:40;100601.78;;;15.95;66.75
42105;BME280;70664;51.472;5.712;2023-12-29T05:09:06;100610.44;;;15.94;66.73
42105;BME280;70664;51.472;5.712;2023-12-29T05:11:32;100605.25;;;15.94;67.06
42105;BME280;70664;51.472;5.712;2023-12-29T05:13:58;100611.34;;;15.93;66.89
42105;BME280;70664;51.472;5.712;2023-12-29T05:16:23;100615.69;;;15.93;66.77
42105;BME280;70664;51.472;5.712;2023-12-29T05:18:49;100621.72;;;15.93;66.78
42105;BME280;70664;51.472;5.712;2023-12-29T05:21:18;100608.75;;;15.93;66.95
42105;BME280;70664;51.472;5.712;2023-12-29T05:23:45;100609.69;;;15.91;67.01
42105;BME280;70664;51.472;5.712;2023-12-29T05:26:12;100608.81;;;15.90;66.59
42105;BME280;70664;51.472;5.712;2023-12-29T05:28:37;100622.63;;;15.91;66.63
42105;BME280;70664;51.472;5.712;2023-12-29T05:31:03;100619.19;;;15.90;66.95
42105;BME280;70664;51.472;5.712;2023-12-29T05:33:33;100625.28;;;15.89;66.90
42105;BME280;70664;51.472;5.712;2023-12-29T05:36:05;100619.19;;;15.90;66.61
42105;BME280;70664;51.472;5.712;2023-12-29T05:38:31;100603.72;;;15.87;66.94
42105;BME280;70664;51.472;5.712;2023-12-29T05:40:57;100612.31;;;15.89;66.82
42105;BME280;70664;51.472;5.712;2023-12-29T05:43:23;100609.75;;;15.87;66.84
42105;BME280;70664;51.472;5.712;2023-12-29T05:45:48;100598.53;;;15.85;66.71
42105;BME280;70664;51.472;5.712;2023-12-29T05:48:14;100589.88;;;15.86;66.59
42105;BME280;70664;51.472;5.712;2023-12-29T05:50:40;100612.38;;;15.86;66.83
42105;BME280;70664;51.472;5.712;2023-12-29T05:53:06;100612.38;;;15.86;66.66
42105;BME280;70664;51.472;5.712;2023-12-29T05:55:32;100601.16;;;15.84;66.70
42105;BME280;70664;51.472;5.712;2023-12-29T05:57:58;100607.19;;;15.84;66.70
42105;BME280;70664;51.472;5.712;2023-12-29T06:00:23;100589.09;;;15.83;66.91
42105;BME280;70664;51.472;5.712;2023-12-29T06:02:49;100593.41;;;15.82;66.99
42105;BME280;70664;51.472;5.712;2023-12-29T06:05:15;100603.78;;;15.82;66.57
42105;BME280;70664;51.472;5.712;2023-12-29T06:07:41;100608.13;;;15.82;66.99
42105;BME280;70664;51.472;5.712;2023-12-29T06:10:07;100598.63;;;15.81;67.09
42105;BME280;70664;51.472;5.712;2023-12-29T06:12:35;100610.72;;;15.80;67.04
42105;BME280;70664;51.472;5.712;2023-12-29T06:15:01;100593.47;;;15.79;66.81
42105;BME280;70664;51.472;5.712;2023-12-29T06:17:27;100592.56;;;15.80;66.88
42105;BME280;70664;51.472;5.712;2023-12-29T06:19:53;100591.75;;;15.80;66.83
42105;BME280;70664;51.472;5.712;2023-12-29T06:22:19;100593.47;;;15.79;67.03
42105;BME280;70664;51.472;5.712;2023-12-29T06:24:44;100600.41;;;15.79;67.11
42105;BME280;70664;51.472;5.712;2023-12-29T06:27:11;100594.34;;;15.80;66.52
42105;BME280;70664;51.472;5.712;2023-12-29T06:29:37;100595.25;;;15.77;67.06
42105;BME280;70664;51.472;5.712;2023-12-29T06:32:04;100592.66;;;15.77;66.82
42105;BME280;70664;51.472;5.712;2023-12-29T06:34:30;100597.81;;;15.77;66.77
42105;BME280;70664;51.472;5.712;2023-12-29T06:36:56;100590.06;;;15.77;66.98
42105;BME280;70664;51.472;5.712;2023-12-29T06:39:22;100593.53;;;15.76;66.68
42105;BME280;70664;51.472;5.712;2023-12-29T06:41:48;100597.88;;;15.76;67.21
42105;BME280;70664;51.472;5.712;2023-12-29T06:44:14;100596.13;;;15.76;66.95
42105;BME280;70664;51.472;5.712;2023-12-29T06:46:40;100606.53;;;15.75;66.91
42105;BME280;70664;51.472;5.712;2023-12-29T06:49:09;100598.75;;;15.75;67.01
42105;BME280;70664;51.472;5.712;2023-12-29T06:51:35;100600.47;;;15.76;66.96
42105;BME280;70664;51.472;5.712;2023-12-29T06:54:07;100606.53;;;15.75;66.74
42105;BME280;70664;51.472;5.712;2023-12-29T06:56:33;100601.41;;;15.73;66.80
42105;BME280;70664;51.472;5.712;2023-12-29T06:58:59;100609.19;;;15.73;66.77
42105;BME280;70664;51.472;5.712;2023-12-29T07:01:24;100595.34;;;15.72;66.59
42105;BME280;70664;51.472;5.712;2023-12-29T07:03:51;100594.50;;;15.72;66.95
42105;BME280;70664;51.472;5.712;2023-12-29T07:06:16;100590.22;;;15.71;67.09
42105;BME280;70664;51.472;5.712;2023-12-29T07:08:42;100597.13;;;15.70;66.88
42105;BME280;70664;51.472;5.712;2023-12-29T07:11:11;100598.00;;;15.69;66.93
42105;BME280;70664;51.472;5.712;2023-12-29T07:13:37;100597.13;;;15.70;66.92
42105;BME280;70664;51.472;5.712;2023-12-29T07:16:04;100597.13;;;15.70;67.05
42105;BME280;70664;51.472;5.712;2023-12-29T07:18:30;100585.06;;;15.69;67.18
42105;BME280;70664;51.472;5.712;2023-12-29T07:20:56;100587.69;;;15.68;67.21
42105;BME280;70664;51.472;5.712;2023-12-29T07:23:22;100580.75;;;15.68;66.97
42105;BME280;70664;51.472;5.712;2023-12-29T07:25:48;100579.91;;;15.68;67.04
42105;BME280;70664;51.472;5.712;2023-12-29T07:28:14;100573.03;;;15.67;67.39
42105;BME280;70664;51.472;5.712;2023-12-29T07:30:40;100585.09;;;15.68;67.19
42105;BME280;70664;51.472;5.712;2023-12-29T07:33:06;100599.78;;;15.67;67.27
42105;BME280;70664;51.472;5.712;2023-12-29T07:35:32;100598.94;;;15.67;67.19
42105;BME280;70664;51.472;5.712;2023-12-29T07:37:57;100596.38;;;15.65;66.74
42105;BME280;70664;51.472;5.712;2023-12-29T07:40:23;100576.50;;;15.66;67.16
42105;BME280;70664;51.472;5.712;2023-12-29T07:42:49;100574.78;;;15.65;66.81
42105;BME280;70664;51.472;5.712;2023-12-29T07:45:17;100563.53;;;15.66;67.12
42105;BME280;70664;51.472;5.712;2023-12-29T07:47:43;100541.09;;;15.65;66.83
42105;BME280;70664;51.472;5.712;2023-12-29T07:50:12;100516.03;;;15.65;66.93
42105;BME280;70664;51.472;5.712;2023-12-29T07:52:38;100515.22;;;15.63;66.59
42105;BME280;70664;51.472;5.712;2023-12-29T07:55:04;100539.41;;;15.62;67.15
42105;BME280;70664;51.472;5.712;2023-12-29T07:57:30;100567.03;;;15.63;66.86
42105;BME280;70664;51.472;5.712;2023-12-29T07:59:55;100575.69;;;15.62;66.94
42105;BME280;70664;51.472;5.712;2023-12-29T08:02:22;100560.16;;;15.62;66.95
42105;BME280;70664;51.472;5.712;2023-12-29T08:04:48;100567.09;;;15.62;66.97
42105;BME280;70664;51.472;5.712;2023-12-29T08:07:14;100565.34;;;15.62;67.22
42105;BME280;70664;51.472;5.712;2023-12-29T08:09:40;100580.00;;;15.63;67.10
42105;BME280;70664;51.472;5.712;2023-12-29T08:12:06;100586.06;;;15.62;66.94
42105;BME280;70664;51.472;5.712;2023-12-29T08:14:32;100592.19;;;15.60;67.18
42105;BME280;70664;51.472;5.712;2023-12-29T08:16:58;100589.59;;;15.60;67.01
42105;BME280;70664;51.472;5.712;2023-12-29T08:19:23;100594.78;;;15.60;66.99
42105;BME280;70664;51.472;5.712;2023-12-29T08:21:51;100601.69;;;15.59;67.29
42105;BME280;70664;51.472;5.712;2023-12-29T08:24:16;100604.31;;;15.57;67.17
42105;BME280;70664;51.472;5.712;2023-12-29T08:26:46;100604.31;;;15.57;67.46
42105;BME280;70664;51.472;5.712;2023-12-29T08:29:14;100611.25;;;15.57;67.29
42105;BME280;70664;51.472;5.712;2023-12-29T08:31:40;100610.38;;;15.56;67.18
42105;BME280;70664;51.472;5.712;2023-12-29T08:34:05;100607.78;;;15.58;67.16
42105;BME280;70664;51.472;5.712;2023-12-29T08:36:31;100606.00;;;15.58;67.19
42105;BME280;70664;51.472;5.712;2023-12-29T08:38:57;100592.25;;;15.56;67.25
42105;BME280;70664;51.472;5.712;2023-12-29T08:41:23;100587.09;;;15.55;66.93
42105;BME280;70664;51.472;5.712;2023-12-29T08:43:49;100580.22;;;15.54;67.29
42105;BME280;70664;51.472;5.712;2023-12-29T08:46:14;100587.09;;;15.55;67.01
42105;BME280;70664;51.472;5.712;2023-12-29T08:48:40;100600.06;;;15.55;66.94
42105;BME280;70664;51.472;5.712;2023-12-29T08:51:06;100603.50;;;15.55;67.10
42105;BME280;70664;51.472;5.712;2023-12-29T08:53:32;100615.59;;;15.55;67.17
42105;BME280;70664;51.472;5.712;2023-12-29T08:56:02;100615.63;;;15.53;67.21
42105;BME280;70664;51.472;5.712;2023-12-29T08:58:29;100618.22;;;15.53;67.25
42105;BME280;70664;51.472;5.712;2023-12-29T09:00:55;100613.03;;;15.53;67.23
42105;BME280;70664;51.472;5.712;2023-12-29T09:03:20;100624.28;;;15.52;67.26
42105;BME280;70664;51.472;5.712;2023-12-29T09:05:46;100622.56;;;15.51;67.30
42105;BME280;70664;51.472;5.712;2023-12-29T09:08:12;100626.91;;;15.51;67.27
42105;BME280;70664;51.472;5.712;2023-12-29T09:10:38;100624.28;;;15.52;66.96
42105;BME280;70664;51.472;5.712;2023-12-29T09:13:04;100631.22;;;15.52;66.84
42105;BME280;70664;51.472;5.712;2023-12-29T09:15:30;100628.63;;;15.52;66.82
42105;BME280;70664;51.472;5.712;2023-12-29T09:17:56;100618.25;;;15.52;67.23
42105;BME280;70664;51.472;5.712;2023-12-29T09:20:23;100623.44;;;15.52;67.06
42105;BME280;70664;51.472;5.712;2023-12-29T09:22:48;100620.03;;;15.50;67.44
42105;BME280;70664;51.472;5.712;2023-12-29T09:25:14;100620.88;;;15.50;66.91
42105;BME280;70664;51.472;5.712;2023-12-29T09:27:41;100626.09;;;15.49;67.43
42105;BME280;70664;51.472;5.712;2023-12-29T09:30:07;100630.41;;;15.48;67.24
42105;BME280;70664;51.472;5.712;2023-12-29T09:32:33;100622.63;;;15.48;67.22
42105;BME280;70664;51.472;5.712;2023-12-29T09:34:59;100630.44;;;15.47;67.25
42105;BME280;70664;51.472;5.712;2023-12-29T09:37:25;100633.03;;;15.47;67.06
42105;BME280;70664;51.472;5.712;2023-12-29T09:39:50;100638.22;;;15.47;67.21
42105;BME280;70664;51.472;5.712;2023-12-29T09:42:23;100633.03;;;15.47;67.27
42105;BME280;70664;51.472;5.712;2023-12-29T09:44:51;100636.50;;;15.46;67.22
42105;BME280;70664;51.472;5.712;2023-12-29T09:47:24;100640.84;;;15.45;67.53
42105;BME280;70664;51.472;5.712;2023-12-29T09:49:52;100636.50;;;15.46;67.16
42105;BME280;70664;51.472;5.712;2023-12-29T09:52:20;100646.03;;;15.45;67.42
42105;BME280;70664;51.472;5.712;2023-12-29T09:54:51;100639.09;;;15.46;67.12
42105;BME280;70664;51.472;5.712;2023-12-29T09:57:18;100646.00;;;15.47;67.34
42105;BME280;70664;51.472;5.712;2023-12-29T09:59:44;100625.31;;;15.45;67.18
42105;BME280;70664;51.472;5.712;2023-12-29T10:02:15;100665.94;;;15.41;67.65
42105;BME280;70664;51.472;5.712;2023-12-29T10:04:43;100635.63;;;15.47;67.37
42105;BME280;70664;51.472;5.712;2023-12-29T10:07:18;100637.34;;;15.48;67.47
42105;BME280;70664;51.472;5.712;2023-12-29T10:09:46;100647.66;;;15.51;67.38
42105;BME280;70664;51.472;5.712;2023-12-29T10:12:13;100645.94;;;15.48;67.52
42105;BME280;70664;51.472;5.712;2023-12-29T10:14:46;100641.69;;;15.47;67.64
42105;BME280;70664;51.472;5.712;2023-12-29T10:17:27;100632.09;;;15.49;67.89
42105;BME280;70664;51.472;5.712;2023-12-29T10:26:04;100652.84;;;15.49;68.02
42105;BME280;70664;51.472;5.712;2023-12-29T10:28:32;100657.22;;;15.47;67.74
42105;BME280;70664;51.472;5.712;2023-12-29T10:30:57;100663.19;;;15.49;67.93
42105;BME280;70664;51.472;5.712;2023-12-29T10:33:24;100659.78;;;15.49;68.28
42105;BME280;70664;51.472;5.712;2023-12-29T10:36:01;100657.19;;;15.49;68.19
42105;BME280;70664;51.472;5.712;2023-12-29T10:38:33;100667.50;;;15.50;68.25
42105;BME280;70664;51.472;5.712;2023-12-29T10:41:16;100668.38;;;15.51;68.31
42105;BME280;70664;51.472;5.712;2023-12-29T10:43:43;100667.59;;;15.47;68.31
42105;BME280;70664;51.472;5.712;2023-12-29T10:46:11;100663.25;;;15.48;68.50
42105;BME280;70664;51.472;5.712;2023-12-29T10:48:37;100664.94;;;15.49;68.61
42105;BME280;70664;51.472;5.712;2023-12-29T10:51:04;100664.09;;;15.48;68.60
42105;BME280;70664;51.472;5.712;2023-12-29T10:53:34;100668.44;;;15.48;68.55
42105;BME280;70664;51.472;5.712;2023-12-29T10:56:00;100668.44;;;15.48;68.82
42105;BME280;70664;51.472;5.712;2023-12-29T10:58:27;100671.84;;;15.50;68.56
42105;BME280;70664;51.472;5.712;2023-12-29T11:00:56;100668.38;;;15.49;68.40
42105;BME280;70664;51.472;5.712;2023-12-29T11:03:22;100664.94;;;15.49;68.37
42105;BME280;70664;51.472;5.712;2023-12-29T11:05:49;100659.81;;;15.47;69.01
42105;BME280;70664;51.472;5.712;2023-12-29T11:08:20;100660.66;;;15.48;68.61
42105;BME280;70664;51.472;5.712;2023-12-29T11:10:49;100664.06;;;15.50;68.58
42105;BME280;70664;51.472;5.712;2023-12-29T11:13:15;100659.00;;;15.45;68.63
42105;BME280;70664;51.472;5.712;2023-12-29T11:15:45;100662.41;;;15.46;68.74
42105;BME280;70664;51.472;5.712;2023-12-29T11:18:16;100664.09;;;15.48;68.69
42105;BME280;70664;51.472;5.712;2023-12-29T11:20:45;100682.22;;;15.48;68.93
42105;BME280;70664;51.472;5.712;2023-12-29T11:23:12;100671.06;;;15.45;69.18
42105;BME280;70664;51.472;5.712;2023-12-29T11:25:44;100664.19;;;15.45;69.14
42105;BME280;70664;51.472;5.712;2023-12-29T11:28:14;100663.34;;;15.43;69.21
42105;BME280;70664;51.472;5.712;2023-12-29T11:30:40;100671.06;;;15.46;68.99
42105;BME280;70664;51.472;5.712;2023-12-29T11:33:20;100677.09;;;15.47;68.93
42105;BME280;70664;51.472;5.712;2023-12-29T11:36:12;100676.09;;;15.52;69.13
42105;BME280;70664;51.472;5.712;2023-12-29T11:39:27;100652.06;;;15.46;69.00
42105;BME280;70664;51.472;5.712;2023-12-29T11:42:19;100674.44;;;15.48;69.57
42105;BME280;70664;51.472;5.712;2023-12-29T11:44:46;100672.63;;;15.55;69.00
42105;BME280;70664;51.472;5.712;2023-12-29T11:47:37;100670.06;;;15.52;68.95
42105;BME280;70664;51.472;5.712;2023-12-29T11:50:05;100671.84;;;15.48;69.09
42105;BME280;70664;51.472;5.712;2023-12-29T11:52:35;100660.66;;;15.48;69.12
42105;BME280;70664;51.472;5.712;2023-12-29T11:55:14;100658.91;;;15.48;68.92
42105;BME280;70664;51.472;5.712;2023-12-29T11:57:46;100649.47;;;15.47;68.67
42105;BME280;70664;51.472;5.712;2023-12-29T12:00:12;100651.97;;;15.50;68.52
42105;BME280;70664;51.472;5.712;2023-12-29T12:02:38;100651.94;;;15.52;68.57
42105;BME280;70664;51.472;5.712;2023-12-29T12:05:05;100645.00;;;15.52;68.24
42105;BME280;70664;51.472;5.712;2023-12-29T12:12:49;100620.88;;;15.50;68.25
42105;BME280;70664;51.472;5.712;2023-12-29T12:17:59;100628.63;;;15.50;68.17
42105;BME280;70664;51.472;5.712;2023-12-29T12:20:26;100636.41;;;15.50;68.68
42105;BME280;70664;51.472;5.712;2023-12-29T12:23:10;100633.00;;;15.48;68.43
42105;BME280;70664;51.472;5.712;2023-12-29T12:25:39;100619.16;;;15.49;68.16
42105;BME280;70664;51.472;5.712;2023-12-29T12:28:09;100625.22;;;15.48;68.75
42105;BME280;70664;51.472;5.712;2023-12-29T12:30:36;100620.09;;;15.47;68.75
42105;BME280;70664;51.472;5.712;2023-12-29T12:33:03;100611.47;;;15.46;68.42
42105;BME280;70664;51.472;5.712;2023-12-29T12:35:30;100628.72;;;15.47;68.65
42105;BME280;70664;51.472;5.712;2023-12-29T12:38:16;100626.13;;;15.47;68.36
42105;BME280;70664;51.472;5.712;2023-12-29T12:40:50;100608.00;;;15.47;68.38
42105;BME280;70664;51.472;5.712;2023-12-29T12:43:17;100597.66;;;15.46;68.57
42105;BME280;70664;51.472;5.712;2023-12-29T12:45:55;100633.09;;;15.43;68.61
42105;BME280;70664;51.472;5.712;2023-12-29T12:48:35;100629.69;;;15.41;68.95
42105;BME280;70664;51.472;5.712;2023-12-29T12:51:01;100617.50;;;15.47;68.77
42105;BME280;70664;51.472;5.712;2023-12-29T12:53:29;100605.38;;;15.49;68.58
42105;BME280;70664;51.472;5.712;2023-12-29T12:55:55;100608.91;;;15.45;69.00
42105;BME280;70664;51.472;5.712;2023-12-29T12:58:21;100605.41;;;15.47;68.57
42105;BME280;70664;51.472;5.712;2023-12-29T13:00:47;100597.66;;;15.46;68.64
42105;BME280;70664;51.472;5.712;2023-12-29T13:03:14;100587.28;;;15.47;68.79
42105;BME280;70664;51.472;5.712;2023-12-29T13:05:41;100564.84;;;15.46;68.59
42105;BME280;70664;51.472;5.712;2023-12-29T13:08:07;100587.28;;;15.46;68.74